Time,TemperatureF,DewpointF,PressureIn,WindDirection,WindDirectionDegrees,WindSpeedMPH,WindSpeedGustMPH,Humidity,HourlyPrecipIn,Conditions,Clouds,dailyrainin,SoftwareType,DateUTC
2013-02-02 00:00:00,48.9,42.3,30.25,SE,128,0.0,0.0,78,0.00,,,0.00,Wunderground v.1.15,2013-02-02 06:00:00,
2013-02-02 00:09:00,48.4,41.9,30.25,SE,129,0.0,0.0,78,0.00,,,0.00,Wunderground v.1.15,2013-02-02 06:09:00,
2013-02-02 00:19:00,48.1,42.2,30.25,SE,128,0.0,0.0,80,0.00,,,0.00,Wunderground v.1.15,2013-02-02 06:19:00,
2013-02-02 00:25:00,48.0,42.1,30.25,SE,128,0.0,0.0,80,0.00,,,0.00,Wunderground v.1.15,2013-02-02 06:25:00,
2013-02-02 00:34:00,48.1,42.2,30.25,SE,129,0.0,0.0,80,0.00,,,0.00,Wunderground v.1.15,2013-02-02 06:34:00,
2013-02-02 00:45:00,47.6,42.1,30.24,SE,129,0.0,0.0,81,0.00,,,0.00,Wunderground v.1.15,2013-02-02 06:45:00,
2013-02-02 00:54:00,47.0,41.8,30.23,SE,129,0.0,0.0,82,0.00,,,0.00,Wunderground v.1.15,2013-02-02 06:54:00,
2013-02-02 01:04:00,46.3,41.1,30.23,SE,129,0.0,0.0,82,0.00,,,0.00,Wunderground v.1.15,2013-02-02 07:04:00,
2013-02-02 01:15:00,45.6,40.7,30.23,SE,129,0.0,0.0,83,0.00,,,0.00,Wunderground v.1.15,2013-02-02 07:15:00,
2013-02-02 01:24:00,46.0,41.7,30.23,SE,129,0.0,0.0,85,0.00,,,0.00,Wunderground v.1.15,2013-02-02 07:24:00,
2013-02-02 01:34:00,46.5,42.2,30.23,SE,129,0.0,0.0,85,0.00,,,0.00,Wunderground v.1.15,2013-02-02 07:34:00,
2013-02-02 01:40:00,46.8,42.5,30.23,SE,128,0.0,0.0,85,0.00,,,0.00,Wunderground v.1.15,2013-02-02 07:40:00,
2013-02-02 01:49:00,46.8,42.2,30.23,SE,129,0.0,0.0,84,0.00,,,0.00,Wunderground v.1.15,2013-02-02 07:49:00,
2013-02-02 02:00:00,46.0,41.4,30.23,SE,128,0.0,0.0,84,0.00,,,0.00,Wunderground v.1.15,2013-02-02 08:00:00,
2013-02-02 02:09:00,45.6,41.7,30.22,SE,128,0.0,0.0,86,0.00,,,0.00,Wunderground v.1.15,2013-02-02 08:09:00,
2013-02-02 02:20:00,45.3,41.4,30.22,SE,129,0.0,0.0,86,0.00,,,0.00,Wunderground v.1.15,2013-02-02 08:20:00,
2013-02-02 02:29:00,45.1,41.5,30.22,SE,129,0.0,0.0,87,0.00,,,0.00,Wunderground v.1.15,2013-02-02 08:29:00,
2013-02-02 02:39:00,45.4,42.1,30.22,SE,129,0.0,0.0,88,0.00,,,0.00,Wunderground v.1.15,2013-02-02 08:39:00,
2013-02-02 02:50:00,45.5,42.4,30.21,SE,129,0.0,0.0,89,0.00,,,0.00,Wunderground v.1.15,2013-02-02 08:50:00,
2013-02-02 03:00:00,45.4,42.1,30.21,SE,128,0.0,0.0,88,0.00,,,0.00,Wunderground v.1.15,2013-02-02 09:00:00,
2013-02-02 03:09:00,44.8,41.2,30.21,SE,128,0.0,0.0,87,0.00,,,0.00,Wunderground v.1.15,2013-02-02 09:09:00,
2013-02-02 03:20:00,44.9,42.1,30.21,SE,127,0.0,0.0,90,0.00,,,0.00,Wunderground v.1.15,2013-02-02 09:20:00,
2013-02-02 03:29:00,45.9,43.1,30.21,ESE,117,0.0,0.0,90,0.00,,,0.00,Wunderground v.1.15,2013-02-02 09:29:00,
2013-02-02 03:39:00,45.7,42.6,30.21,ESE,117,0.0,0.0,89,0.00,,,0.00,Wunderground v.1.15,2013-02-02 09:39:00,
2013-02-02 03:45:00,45.2,41.9,30.21,ESE,117,0.0,0.0,88,0.00,,,0.00,Wunderground v.1.15,2013-02-02 09:45:00,
2013-02-02 03:54:00,45.2,42.4,30.21,ESE,117,0.0,0.0,90,0.00,,,0.00,Wunderground v.1.15,2013-02-02 09:54:00,
2013-02-02 04:05:00,45.1,42.3,30.21,ESE,117,0.0,0.0,90,0.00,,,0.00,Wunderground v.1.15,2013-02-02 10:05:00,
2013-02-02 04:14:00,45.3,43.1,30.21,ESE,117,0.0,0.0,92,0.00,,,0.00,Wunderground v.1.15,2013-02-02 10:14:00,
2013-02-02 04:24:00,45.9,43.7,30.21,ESE,117,0.0,0.0,92,0.00,,,0.00,Wunderground v.1.15,2013-02-02 10:24:00,
2013-02-02 04:30:00,46.0,43.8,30.22,ESE,117,0.0,0.0,92,0.00,,,0.00,Wunderground v.1.15,2013-02-02 10:30:00,
2013-02-02 04:40:00,45.8,43.0,30.22,ESE,117,0.0,0.0,90,0.00,,,0.00,Wunderground v.1.15,2013-02-02 10:40:00,
2013-02-02 04:49:00,44.9,42.1,30.21,ESE,117,0.0,0.0,90,0.00,,,0.00,Wunderground v.1.15,2013-02-02 10:49:00,
2013-02-02 05:00:00,44.8,42.6,30.22,ESE,117,0.0,0.0,92,0.00,,,0.00,Wunderground v.1.15,2013-02-02 11:00:00,
2013-02-02 05:09:00,45.6,43.7,30.22,ESE,117,0.0,0.0,93,0.00,,,0.00,Wunderground v.1.15,2013-02-02 11:09:00,
2013-02-02 05:20:00,46.0,43.8,30.22,ESE,117,0.0,0.0,92,0.00,,,0.00,Wunderground v.1.15,2013-02-02 11:20:00,
2013-02-02 05:29:00,44.9,42.4,30.22,ESE,117,0.0,0.0,91,0.00,,,0.00,Wunderground v.1.15,2013-02-02 11:29:00,
2013-02-02 05:39:00,44.3,41.8,30.22,ESE,117,0.0,0.0,91,0.00,,,0.00,Wunderground v.1.15,2013-02-02 11:39:00,
2013-02-02 05:45:00,44.0,41.5,30.23,ESE,117,0.0,0.0,91,0.00,,,0.00,Wunderground v.1.15,2013-02-02 11:45:00,
2013-02-02 05:54:00,44.1,42.2,30.23,ESE,117,0.0,0.0,93,0.00,,,0.00,Wunderground v.1.15,2013-02-02 11:54:00,
2013-02-02 06:00:00,44.3,42.4,30.23,ESE,117,0.0,0.0,93,0.00,,,0.00,Wunderground v.1.15,2013-02-02 12:00:00,
2013-02-02 06:09:00,45.0,43.4,30.24,ESE,117,0.0,0.0,94,0.00,,,0.00,Wunderground v.1.15,2013-02-02 12:09:00,
2013-02-02 06:19:00,45.3,43.4,30.24,ESE,117,0.0,0.0,93,0.00,,,0.00,Wunderground v.1.15,2013-02-02 12:19:00,
2013-02-02 06:25:00,44.9,43.0,30.24,ESE,117,0.0,0.0,93,0.00,,,0.00,Wunderground v.1.15,2013-02-02 12:25:00,
2013-02-02 06:34:00,45.1,43.5,30.24,ESE,117,0.0,0.0,94,0.00,,,0.00,Wunderground v.1.15,2013-02-02 12:34:00,
2013-02-02 06:45:00,44.6,42.7,30.24,ESE,117,0.0,0.0,93,0.00,,,0.00,Wunderground v.1.15,2013-02-02 12:45:00,
2013-02-02 06:55:00,43.8,41.9,30.24,ESE,117,0.0,0.0,93,0.00,,,0.00,Wunderground v.1.15,2013-02-02 12:55:00,
2013-02-02 07:04:00,43.3,41.4,30.25,ESE,117,0.0,0.0,93,0.00,,,0.00,Wunderground v.1.15,2013-02-02 13:04:00,
2013-02-02 07:10:00,43.3,41.7,30.25,ESE,117,0.0,0.0,94,0.00,,,0.00,Wunderground v.1.15,2013-02-02 13:10:00,
2013-02-02 07:19:00,43.6,42.0,30.25,ESE,117,0.0,0.0,94,0.00,,,0.00,Wunderground v.1.15,2013-02-02 13:19:00,
2013-02-02 07:30:00,43.5,41.9,30.25,ESE,117,0.0,0.0,94,0.00,,,0.00,Wunderground v.1.15,2013-02-02 13:30:00,
2013-02-02 07:39:00,44.1,42.8,30.25,ESE,117,0.0,0.0,95,0.00,,,0.00,Wunderground v.1.15,2013-02-02 13:39:00,
2013-02-02 07:49:00,44.0,42.4,30.26,ESE,117,0.0,0.0,94,0.00,,,0.00,Wunderground v.1.15,2013-02-02 13:49:00,
2013-02-02 07:55:00,44.3,43.0,30.26,ESE,117,0.0,0.0,95,0.00,,,0.00,Wunderground v.1.15,2013-02-02 13:55:00,
2013-02-02 08:04:00,44.7,43.4,30.26,ESE,117,0.0,0.0,95,0.00,,,0.00,Wunderground v.1.15,2013-02-02 14:04:00,
2013-02-02 08:14:00,46.2,45.1,30.26,ESE,117,0.0,0.0,96,0.00,,,0.00,Wunderground v.1.15,2013-02-02 14:14:00,
2013-02-02 08:20:00,46.6,45.5,30.26,ESE,117,0.0,0.0,96,0.00,,,0.00,Wunderground v.1.15,2013-02-02 14:20:00,
2013-02-02 08:29:00,47.6,46.5,30.26,ESE,117,0.0,0.0,96,0.00,,,0.00,Wunderground v.1.15,2013-02-02 14:29:00,
2013-02-02 08:40:00,48.8,48.0,30.27,ESE,117,0.0,0.0,97,0.00,,,0.00,Wunderground v.1.15,2013-02-02 14:40:00,
2013-02-02 08:49:00,50.1,49.0,30.27,ESE,117,0.0,0.0,96,0.00,,,0.00,Wunderground v.1.15,2013-02-02 14:49:00,
2013-02-02 09:00:00,52.1,50.4,30.27,West,263,0.0,0.0,94,0.00,,,0.00,Wunderground v.1.15,2013-02-02 15:00:00,
2013-02-02 09:09:00,54.3,51.1,30.27,West,260,1.0,1.0,89,0.00,,,0.00,Wunderground v.1.15,2013-02-02 15:09:00,
2013-02-02 09:19:00,56.1,52.0,30.27,West,260,1.0,2.0,86,0.00,,,0.00,Wunderground v.1.15,2013-02-02 15:19:00,
2013-02-02 09:30:00,57.3,52.2,30.28,SW,221,1.0,1.0,83,0.00,,,0.00,Wunderground v.1.15,2013-02-02 15:30:00,
2013-02-02 09:39:00,58.3,52.5,30.28,South,172,1.0,2.0,81,0.00,,,0.00,Wunderground v.1.15,2013-02-02 15:39:00,
2013-02-02 09:49:00,59.4,53.6,30.28,SW,215,1.0,2.0,81,0.00,,,0.00,Wunderground v.1.15,2013-02-02 15:49:00,
2013-02-02 09:55:00,60.0,53.8,30.28,West,264,2.0,5.0,80,0.00,,,0.00,Wunderground v.1.15,2013-02-02 15:55:00,
2013-02-02 10:00:00,60.6,54.0,30.28,West,264,2.0,5.0,79,0.00,,,0.00,Wunderground v.1.15,2013-02-02 16:00:00,
2013-02-02 10:09:00,61.7,54.8,30.28,SW,236,3.0,3.0,78,0.00,,,0.00,Wunderground v.1.15,2013-02-02 16:09:00,
2013-02-02 10:19:00,62.9,55.2,30.28,WNW,301,2.0,2.0,76,0.00,,,0.00,Wunderground v.1.15,2013-02-02 16:19:00,
2013-02-02 10:30:00,63.6,55.5,30.28,WNW,302,3.0,3.0,75,0.00,,,0.00,Wunderground v.1.15,2013-02-02 16:30:00,
2013-02-02 10:39:00,64.2,56.1,30.28,SSW,207,3.0,3.0,75,0.00,,,0.00,Wunderground v.1.15,2013-02-02 16:39:00,
2013-02-02 10:50:00,64.8,56.3,30.28,WSW,243,2.0,2.0,74,0.00,,,0.00,Wunderground v.1.15,2013-02-02 16:50:00,
2013-02-02 10:59:00,65.4,56.9,30.28,South,171,3.0,3.0,74,0.00,,,0.00,Wunderground v.1.15,2013-02-02 16:59:00,
2013-02-02 11:09:00,65.6,56.7,30.28,SW,217,3.0,3.0,73,0.00,,,0.00,Wunderground v.1.15,2013-02-02 17:09:00,
2013-02-02 11:20:00,66.1,56.4,30.28,WNW,283,3.0,3.0,71,0.00,,,0.00,Wunderground v.1.15,2013-02-02 17:20:00,
2013-02-02 11:29:00,66.8,57.1,30.28,WNW,301,2.0,2.0,71,0.00,,,0.00,Wunderground v.1.15,2013-02-02 17:29:00,
2013-02-02 11:39:00,67.8,57.7,30.27,SSW,198,2.0,2.0,70,0.00,,,0.00,Wunderground v.1.15,2013-02-02 17:39:00,
2013-02-02 11:45:00,68.0,57.4,30.27,West,264,2.0,3.0,69,0.00,,,0.00,Wunderground v.1.15,2013-02-02 17:45:00,
2013-02-02 11:50:00,68.7,58.1,30.27,South,187,2.0,3.0,69,0.00,,,0.00,Wunderground v.1.15,2013-02-02 17:50:00,
2013-02-02 11:59:00,69.1,57.7,30.27,WNW,288,2.0,3.0,67,0.00,,,0.00,Wunderground v.1.15,2013-02-02 17:59:00,
2013-02-02 12:10:00,70.0,58.1,30.26,East,101,2.0,2.0,66,0.00,,,0.00,Wunderground v.1.15,2013-02-02 18:10:00,
2013-02-02 12:19:00,70.8,58.0,30.26,NNW,327,2.0,2.0,64,0.00,,,0.00,Wunderground v.1.15,2013-02-02 18:19:00,
2013-02-02 12:29:00,70.3,57.1,30.26,West,278,2.0,2.0,63,0.00,,,0.00,Wunderground v.1.15,2013-02-02 18:29:00,
2013-02-02 12:35:00,70.0,56.8,30.25,SSW,204,2.0,2.0,63,0.00,,,0.00,Wunderground v.1.15,2013-02-02 18:35:00,
2013-02-02 12:44:00,70.6,57.4,30.25,WNW,287,2.0,2.0,63,0.00,,,0.00,Wunderground v.1.15,2013-02-02 18:44:00,
2013-02-02 12:54:00,72.1,57.4,30.25,WSW,243,1.0,3.0,60,0.00,,,0.00,Wunderground v.1.15,2013-02-02 18:54:00,
2013-02-02 13:05:00,71.6,57.0,30.24,WSW,240,3.0,4.0,60,0.00,,,0.00,Wunderground v.1.15,2013-02-02 19:05:00,
2013-02-02 13:14:00,72.1,57.0,30.24,West,266,2.0,3.0,59,0.00,,,0.00,Wunderground v.1.15,2013-02-02 19:14:00,
2013-02-02 13:24:00,72.2,56.1,30.23,NW,323,3.0,5.0,57,0.00,,,0.00,Wunderground v.1.15,2013-02-02 19:24:00,
2013-02-02 13:30:00,72.4,56.8,30.23,West,262,2.0,2.0,58,0.00,,,0.00,Wunderground v.1.15,2013-02-02 19:30:00,
2013-02-02 13:39:00,73.2,55.6,30.23,West,261,2.0,2.0,54,0.00,,,0.00,Wunderground v.1.15,2013-02-02 19:39:00,
2013-02-02 13:50:00,73.8,56.1,30.22,SSW,205,1.0,4.0,54,0.00,,,0.00,Wunderground v.1.15,2013-02-02 19:50:00,
2013-02-02 13:59:00,73.0,54.9,30.22,North,4,2.0,2.0,53,0.00,,,0.00,Wunderground v.1.15,2013-02-02 19:59:00,
2013-02-02 14:09:00,73.6,54.9,30.22,West,266,2.0,2.0,52,0.00,,,0.00,Wunderground v.1.15,2013-02-02 20:09:00,
2013-02-02 14:20:00,74.5,56.2,30.21,West,269,1.0,1.0,53,0.00,,,0.00,Wunderground v.1.15,2013-02-02 20:20:00,
2013-02-02 14:30:00,74.2,54.9,30.21,NW,306,2.0,2.0,51,0.00,,,0.00,Wunderground v.1.15,2013-02-02 20:30:00,
2013-02-02 14:39:00,73.8,54.5,30.21,NW,325,2.0,2.0,51,0.00,,,0.00,Wunderground v.1.15,2013-02-02 20:39:00,
2013-02-02 14:45:00,74.2,55.4,30.21,SW,218,1.0,2.0,52,0.00,,,0.00,Wunderground v.1.15,2013-02-02 20:45:00,
2013-02-02 14:54:00,74.7,54.8,30.21,SE,129,1.0,1.0,50,0.00,,,0.00,Wunderground v.1.15,2013-02-02 20:54:00,
2013-02-02 15:04:00,75.1,54.6,30.21,ESE,103,1.0,1.0,49,0.00,,,0.00,Wunderground v.1.15,2013-02-02 21:04:00,
2013-02-02 15:10:00,74.9,54.4,30.21,East,84,1.0,2.0,49,0.00,,,0.00,Wunderground v.1.15,2013-02-02 21:10:00,
2013-02-02 15:19:00,75.5,54.4,30.21,SE,133,1.0,1.0,48,0.00,,,0.00,Wunderground v.1.15,2013-02-02 21:19:00,
2013-02-02 15:30:00,76.2,55.1,30.20,NW,307,1.0,1.0,48,0.00,,,0.00,Wunderground v.1.15,2013-02-02 21:30:00,
2013-02-02 15:39:00,75.7,54.6,30.20,ESE,110,2.0,2.0,48,0.00,,,0.00,Wunderground v.1.15,2013-02-02 21:39:00,
2013-02-02 15:50:00,76.1,54.4,30.19,East,95,1.0,2.0,47,0.00,,,0.00,Wunderground v.1.15,2013-02-02 21:50:00,
2013-02-02 15:59:00,75.9,54.8,30.19,SSW,205,1.0,1.0,48,0.00,,,0.00,Wunderground v.1.15,2013-02-02 21:59:00,
2013-02-02 16:09:00,75.9,54.2,30.19,West,278,1.0,1.0,47,0.00,,,0.00,Wunderground v.1.15,2013-02-02 22:09:00,
2013-02-02 16:14:00,76.2,53.9,30.19,West,276,1.0,2.0,46,0.00,,,0.00,Wunderground v.1.15,2013-02-02 22:14:00,
2013-02-02 16:25:00,76.9,53.9,30.19,West,262,1.0,1.0,45,0.00,,,0.00,Wunderground v.1.15,2013-02-02 22:25:00,
2013-02-02 16:34:00,76.9,54.5,30.19,West,278,1.0,1.0,46,0.00,,,0.00,Wunderground v.1.15,2013-02-02 22:34:00,
2013-02-02 16:45:00,76.5,53.6,30.20,West,276,1.0,2.0,45,0.00,,,0.00,Wunderground v.1.15,2013-02-02 22:45:00,
2013-02-02 16:54:00,75.5,53.9,30.20,WNW,294,1.0,1.0,47,0.00,,,0.00,Wunderground v.1.15,2013-02-02 22:54:00,
2013-02-02 17:04:00,74.6,54.2,30.20,SW,218,0.0,1.0,49,0.00,,,0.00,Wunderground v.1.15,2013-02-02 23:04:00,
2013-02-02 17:10:00,74.3,54.5,30.20,SW,218,0.0,0.0,50,0.00,,,0.00,Wunderground v.1.15,2013-02-02 23:10:00,
2013-02-02 17:20:00,74.8,53.8,30.20,SW,218,0.0,0.0,48,0.00,,,0.00,Wunderground v.1.15,2013-02-02 23:20:00,
2013-02-02 17:29:00,74.6,53.6,30.20,WNW,282,0.0,0.0,48,0.00,,,0.00,Wunderground v.1.15,2013-02-02 23:29:00,
2013-02-02 17:40:00,72.9,54.2,30.21,West,281,0.0,0.0,52,0.00,,,0.00,Wunderground v.1.15,2013-02-02 23:40:00,
2013-02-02 17:49:00,71.5,54.5,30.21,West,281,0.0,0.0,55,0.00,,,0.00,Wunderground v.1.15,2013-02-02 23:49:00,
2013-02-02 17:59:00,69.7,54.7,30.21,West,281,0.0,0.0,59,0.00,,,0.00,Wunderground v.1.15,2013-02-02 23:59:00,
2013-02-02 18:05:00,69.0,54.1,30.22,WNW,282,0.0,0.0,59,0.00,,,0.00,Wunderground v.1.15,2013-02-03 00:05:00,
2013-02-02 18:14:00,67.6,54.1,30.22,West,281,0.0,0.0,62,0.00,,,0.00,Wunderground v.1.15,2013-02-03 00:14:00,
2013-02-02 18:24:00,66.2,53.2,30.22,West,281,0.0,0.0,63,0.00,,,0.00,Wunderground v.1.15,2013-02-03 00:24:00,
2013-02-02 18:30:00,65.5,53.0,30.22,West,281,0.0,0.0,64,0.00,,,0.00,Wunderground v.1.15,2013-02-03 00:30:00,
2013-02-02 18:39:00,64.3,52.7,30.22,West,281,0.0,0.0,66,0.00,,,0.00,Wunderground v.1.15,2013-02-03 00:39:00,
2013-02-02 18:49:00,63.1,52.4,30.23,West,281,0.0,0.0,68,0.00,,,0.00,Wunderground v.1.15,2013-02-03 00:49:00,
2013-02-02 18:55:00,62.6,52.3,30.23,West,281,0.0,0.0,69,0.00,,,0.00,Wunderground v.1.15,2013-02-03 00:55:00,
2013-02-02 19:04:00,61.9,52.0,30.23,West,281,0.0,0.0,70,0.00,,,0.00,Wunderground v.1.15,2013-02-03 01:04:00,
2013-02-02 19:14:00,61.2,51.7,30.24,West,281,0.0,0.0,71,0.00,,,0.00,Wunderground v.1.15,2013-02-03 01:14:00,
2013-02-02 19:19:00,60.8,51.3,30.24,West,281,0.0,0.0,71,0.00,,,0.00,Wunderground v.1.15,2013-02-03 01:19:00,
2013-02-02 19:24:00,60.6,51.5,30.24,West,281,0.0,0.0,72,0.00,,,0.00,Wunderground v.1.15,2013-02-03 01:24:00,
2013-02-02 19:34:00,60.3,51.6,30.25,West,281,0.0,0.0,73,0.00,,,0.00,Wunderground v.1.15,2013-02-03 01:34:00,
2013-02-02 19:40:00,59.8,51.1,30.25,West,281,0.0,0.0,73,0.00,,,0.00,Wunderground v.1.15,2013-02-03 01:40:00,
2013-02-02 19:49:00,59.4,51.1,30.25,West,281,0.0,0.0,74,0.00,,,0.00,Wunderground v.1.15,2013-02-03 01:49:00,
2013-02-02 19:59:00,58.8,51.2,30.25,West,281,0.0,0.0,76,0.00,,,0.00,Wunderground v.1.15,2013-02-03 01:59:00,
2013-02-02 20:05:00,58.5,51.0,30.25,West,281,0.0,0.0,76,0.00,,,0.00,Wunderground v.1.15,2013-02-03 02:05:00,
2013-02-02 20:14:00,58.0,51.2,30.26,West,281,0.0,0.0,78,0.00,,,0.00,Wunderground v.1.15,2013-02-03 02:14:00,
2013-02-02 20:25:00,57.9,50.7,30.26,West,281,0.0,0.0,77,0.00,,,0.00,Wunderground v.1.15,2013-02-03 02:25:00,
2013-02-02 20:34:00,57.2,50.7,30.26,West,281,0.0,0.0,79,0.00,,,0.00,Wunderground v.1.15,2013-02-03 02:34:00,
2013-02-02 20:44:00,57.5,51.0,30.27,West,281,0.0,0.0,79,0.00,,,0.00,Wunderground v.1.15,2013-02-03 02:44:00,
2013-02-02 20:55:00,57.0,50.5,30.27,West,281,0.0,0.0,79,0.00,,,0.00,Wunderground v.1.15,2013-02-03 02:55:00,
2013-02-02 21:04:00,56.5,50.4,30.27,West,281,0.0,1.0,80,0.00,,,0.00,Wunderground v.1.15,2013-02-03 03:04:00,
2013-02-02 21:14:00,56.5,50.7,30.27,West,281,0.0,0.0,81,0.00,,,0.00,Wunderground v.1.15,2013-02-03 03:14:00,
2013-02-02 21:20:00,56.4,50.6,30.28,West,281,0.0,0.0,81,0.00,,,0.00,Wunderground v.1.15,2013-02-03 03:20:00,
2013-02-02 21:29:00,57.2,51.4,30.29,NE,47,1.0,3.0,81,0.00,,,0.00,Wunderground v.1.15,2013-02-03 03:29:00,
2013-02-02 21:40:00,59.9,51.2,30.30,ENE,59,2.0,2.0,73,0.00,,,0.00,Wunderground v.1.15,2013-02-03 03:40:00,
2013-02-02 21:49:00,60.1,51.0,30.30,NE,51,1.0,1.0,72,0.00,,,0.00,Wunderground v.1.15,2013-02-03 03:49:00,
2013-02-02 22:00:00,59.8,51.1,30.30,NE,47,1.0,1.0,73,0.00,,,0.00,Wunderground v.1.15,2013-02-03 04:00:00,
2013-02-02 22:09:00,59.6,50.9,30.29,NE,47,0.0,0.0,73,0.00,,,0.00,Wunderground v.1.15,2013-02-03 04:09:00,
2013-02-02 22:19:00,59.3,51.0,30.30,ENE,65,0.0,0.0,74,0.00,,,0.00,Wunderground v.1.15,2013-02-03 04:19:00,
2013-02-02 22:25:00,59.1,50.8,30.30,ENE,65,0.0,0.0,74,0.00,,,0.00,Wunderground v.1.15,2013-02-03 04:25:00,
2013-02-02 22:34:00,58.9,51.0,30.30,East,91,0.0,0.0,75,0.00,,,0.00,Wunderground v.1.15,2013-02-03 04:34:00,
2013-02-02 22:44:00,59.0,50.7,30.31,NNE,30,0.0,0.0,74,0.00,,,0.00,Wunderground v.1.15,2013-02-03 04:44:00,
2013-02-02 22:50:00,58.9,50.6,30.31,NE,53,0.0,0.0,74,0.00,,,0.00,Wunderground v.1.15,2013-02-03 04:50:00,
2013-02-02 22:59:00,58.7,50.4,30.31,NE,53,0.0,0.0,74,0.00,,,0.00,Wunderground v.1.15,2013-02-03 04:59:00,
2013-02-02 23:04:00,58.7,50.4,30.31,NNE,20,0.0,1.0,74,0.00,,,0.00,Wunderground v.1.15,2013-02-03 05:04:00,
2013-02-02 23:09:00,58.8,50.5,30.31,NE,47,0.0,0.0,74,0.00,,,0.00,Wunderground v.1.15,2013-02-03 05:09:00,
2013-02-02 23:15:00,58.8,50.2,30.31,East,93,1.0,1.0,73,0.00,,,0.00,Wunderground v.1.15,2013-02-03 05:15:00,
2013-02-02 23:20:00,58.7,50.1,30.31,ENE,65,1.0,1.0,73,0.00,,,0.00,Wunderground v.1.15,2013-02-03 05:20:00,
2013-02-02 23:29:00,58.3,50.0,30.31,NE,55,1.0,1.0,74,0.00,,,0.00,Wunderground v.1.15,2013-02-03 05:29:00,
2013-02-02 23:39:00,58.2,50.0,30.31,NE,37,1.0,1.0,74,0.00,,,0.00,Wunderground v.1.15,2013-02-03 05:39:00,
2013-02-02 23:45:00,58.0,49.8,30.31,NE,39,1.0,1.0,74,0.00,,,0.00,Wunderground v.1.15,2013-02-03 05:45:00,
2013-02-02 23:54:00,58.0,49.8,30.31,NNE,15,1.0,1.0,74,0.00,,,0.00,Wunderground v.1.15,2013-02-03 05:54:00,